Time;durP1;ratioP1;P1;durP2;ratioP2;P2;SDS_P1;SDS_P2;PMS_P1;PMS_P2;Temp;Humidity;BMP_temperature;BMP_pressure;BME280_temperature;BME280_humidity;BME280_pressure;Samples;Min_cycle;Max_cycle;Signal;HPM_P1;HPM_P2
2022/05/13 00:01:39;;;;;;;33.90;16.50;;;;;;;15.11;78.68;99395.30;109062;1277;22422;-66
2022/05/13 00:04:07;;;;;;;31.80;14.40;;;;;;;15.09;78.27;99403.48;108901;1277;139065;-66
2022/05/13 00:06:35;;;;;;;19.70;11.00;;;;;;;15.03;77.60;99405.03;109183;1277;22438;-66
2022/05/13 00:09:03;;;;;;;27.80;11.90;;;;;;;14.96;76.33;99408.29;109029;1277;140289;-66
2022/05/13 00:11:31;;;;;;;18.10;9.40;;;;;;;14.90;76.12;99414.05;109154;1277;22467;-66
2022/05/13 00:13:59;;;;;;;22.90;9.40;;;;;;;14.84;75.40;99413.73;109148;1277;22501;-63
2022/05/13 00:16:27;;;;;;;22.50;8.80;;;;;;;14.76;75.02;99414.73;109059;1277;138834;-66
2022/05/13 00:18:55;;;;;;;20.30;8.70;;;;;;;14.65;74.56;99418.94;109132;1276;22543;-66
2022/05/13 00:21:23;;;;;;;21.10;8.40;;;;;;;14.53;74.54;99417.50;108939;1278;138012;-66
2022/05/13 00:23:52;;;;;;;15.20;7.70;;;;;;;14.46;74.31;99423.96;109108;1277;24225;-65
2022/05/13 00:26:20;;;;;;;17.90;7.90;;;;;;;14.39;74.32;99424.99;108935;1277;22503;-66
2022/05/13 00:28:48;;;;;;;19.60;7.80;;;;;;;14.33;74.38;99423.92;109058;1276;139566;-66
2022/05/13 00:31:16;;;;;;;16.00;8.50;;;;;;;14.27;74.43;99428.19;109178;1276;23357;-65
2022/05/13 00:33:45;;;;;;;19.40;7.50;;;;;;;14.18;74.35;99429.84;109036;1277;139807;-65
2022/05/13 00:36:13;;;;;;;17.40;7.00;;;;;;;14.10;73.77;99427.43;109171;1277;22465;-66
2022/05/13 00:38:41;;;;;;;12.50;6.60;;;;;;;14.02;73.40;99433.83;109037;1277;139314;-66
2022/05/13 00:41:09;;;;;;;15.40;6.90;;;;;;;13.94;73.10;99432.72;109120;1277;22465;-65
2022/05/13 00:43:46;;;;;;;22.50;6.70;;;;;;;13.87;73.22;99432.59;109123;1276;22452;-66
2022/05/13 00:46:14;;;;;;;17.40;8.20;;;;;;;13.81;72.94;99431.75;109019;1278;138210;-66
2022/05/13 00:48:43;;;;;;;17.30;7.40;;;;;;;13.77;73.08;99438.23;109133;1277;22546;-66
2022/05/13 00:51:12;;;;;;;12.50;6.70;;;;;;;13.71;72.64;99447.67;109060;1277;139246;-66
2022/05/13 00:53:40;;;;;;;16.70;6.90;;;;;;;13.63;72.05;99448.25;109034;1278;23207;-63
2022/05/13 00:56:08;;;;;;;16.30;6.40;;;;;;;13.56;71.82;99450.30;109067;1278;22568;-63
2022/05/13 00:58:39;;;;;;;12.20;6.60;;;;;;;13.52;71.36;99445.84;109024;1277;138549;-63
2022/05/13 01:01:07;;;;;;;14.50;6.60;;;;;;;13.47;71.48;99442.56;109129;1277;22410;-63
2022/05/13 01:03:35;;;;;;;21.00;7.30;;;;;;;13.45;71.42;99446.17;108875;1279;138353;-63
2022/05/13 01:06:06;;;;;;;16.80;7.80;;;;;;;13.40;71.19;99447.08;109171;1276;22469;-63
2022/05/13 01:08:34;;;;;;;20.70;8.10;;;;;;;13.35;70.92;99447.30;109036;1276;138954;-63
2022/05/13 01:11:06;;;;;;;22.40;8.70;;;;;;;13.32;70.82;99449.44;109130;1277;23123;-63
2022/05/13 01:13:34;;;;;;;29.20;8.10;;;;;;;13.28;70.85;99446.71;109004;1279;22528;-63
2022/05/13 01:16:02;;;;;;;17.80;7.30;;;;;;;13.24;70.50;99452.70;108923;1277;140017;-63
2022/05/13 01:18:35;;;;;;;22.00;7.50;;;;;;;13.20;70.53;99451.27;109129;1277;22640;-63
2022/05/13 01:21:04;;;;;;;25.40;7.00;;;;;;;13.20;70.53;99448.27;109041;1277;139298;-63
2022/05/13 01:23:36;;;;;;;17.70;7.10;;;;;;;13.15;70.41;99448.42;109168;1277;22234;-63
2022/05/13 01:26:06;;;;;;;12.70;6.60;;;;;;;13.12;70.42;99450.12;109171;1277;22510;-63
2022/05/13 01:28:40;;;;;;;15.00;6.30;;;;;;;13.08;70.35;99454.61;108913;1278;138379;-63
2022/05/13 01:31:10;;;;;;;17.70;6.40;;;;;;;13.00;69.95;99460.73;109138;1276;23384;-63
2022/05/13 01:33:40;;;;;;;16.30;5.00;;;;;;;12.90;70.14;99455.34;108960;1278;138175;-63
2022/05/13 01:36:12;;;;;;;16.30;5.80;;;;;;;12.86;70.50;99457.57;109193;1276;22650;-63
2022/05/13 01:38:41;;;;;;;14.60;5.70;;;;;;;12.84;70.67;99462.13;109040;1277;139581;-63
2022/05/13 01:41:10;;;;;;;13.50;5.90;;;;;;;12.83;70.59;99462.58;109142;1277;22520;-63
2022/05/13 01:43:39;;;;;;;13.40;5.20;;;;;;;12.80;70.63;99461.97;109150;1277;22414;-63
2022/05/13 01:46:07;;;;;;;7.70;4.90;;;;;;;12.72;70.46;99463.54;108952;1277;139652;-63
2022/05/13 01:48:35;;;;;;;8.70;4.00;;;;;;;12.66;70.78;99467.55;109122;1277;22587;-63
2022/05/13 01:51:03;;;;;;;12.30;4.40;;;;;;;12.61;70.86;99463.70;108622;1279;138446;-63
2022/05/13 01:53:32;;;;;;;6.40;3.60;;;;;;;12.55;71.00;99463.33;109189;1277;23099;-63
2022/05/13 01:56:00;;;;;;;8.10;4.20;;;;;;;12.51;70.93;99466.33;109152;1277;22502;-63
2022/05/13 01:58:35;;;;;;;9.50;3.90;;;;;;;12.48;71.22;99471.56;109077;1276;139214;-63
2022/05/13 02:01:04;;;;;;;9.20;3.70;;;;;;;12.44;71.52;99471.28;109149;1277;22240;-63
2022/05/13 02:03:45;;;;;;;7.20;3.30;;;;;;;12.40;71.52;99471.83;108941;1277;138176;-63
2022/05/13 02:06:20;;;;;;;8.10;4.20;;;;;;;12.43;71.78;99480.46;109154;1277;22404;-63
2022/05/13 02:08:49;;;;;;;13.30;4.30;;;;;;;12.40;71.93;99482.74;109015;1277;138966;-63
2022/05/13 02:11:19;;;;;;;7.50;3.80;;;;;;;12.38;72.24;99484.84;109164;1277;22603;-63
2022/05/13 02:13:47;;;;;;;14.60;5.00;;;;;;;12.37;72.38;99486.86;109190;1276;23597;-63
2022/05/13 02:16:15;;;;;;;9.40;3.90;;;;;;;12.35;72.59;99485.38;108913;1279;140150;-63
2022/05/13 02:18:44;;;;;;;8.80;4.50;;;;;;;12.33;72.83;99487.39;109069;1278;22476;-64
2022/05/13 02:21:13;;;;;;;11.60;4.20;;;;;;;12.31;73.21;99485.36;109027;1277;138922;-64
2022/05/13 02:23:41;;;;;;;7.20;4.30;;;;;;;12.28;73.50;99488.30;109045;1277;23358;-63
2022/05/13 02:26:12;;;;;;;15.00;4.70;;;;;;;12.24;73.57;99490.61;109124;1277;23114;-64
2022/05/13 02:28:40;;;;;;;7.20;4.70;;;;;;;12.22;73.83;99498.47;109079;1276;139276;-64
2022/05/13 02:31:08;;;;;;;10.70;4.70;;;;;;;12.20;73.97;99500.04;109194;1277;22656;-63
2022/05/13 02:33:38;;;;;;;8.80;4.60;;;;;;;12.16;73.94;99498.66;109062;1277;138993;-63
2022/05/13 02:43:31;;;;;;;9.40;4.60;;;;;;;12.00;73.38;99495.23;109147;1278;23468;-63
2022/05/13 02:46:00;;;;;;;7.00;4.30;;;;;;;12.02;73.12;99499.98;108966;1276;138701;-63
2022/05/13 02:48:28;;;;;;;5.90;3.40;;;;;;;12.02;72.88;99502.11;109205;1276;22424;-63
2022/05/13 02:50:56;;;;;;;6.40;3.50;;;;;;;12.04;72.48;99506.65;109045;1276;138654;-63
2022/05/13 02:53:24;;;;;;;9.60;3.90;;;;;;;12.06;72.24;99511.95;109141;1277;22465;-64
2022/05/13 02:55:52;;;;;;;6.30;3.70;;;;;;;12.09;72.40;99510.23;109064;1279;22546;-63
2022/05/13 02:58:20;;;;;;;7.80;3.00;;;;;;;12.12;72.66;99509.85;109068;1277;139899;-64
2022/05/13 03:00:48;;;;;;;7.80;3.50;;;;;;;12.13;72.32;99507.87;109143;1277;22426;-63
2022/05/13 03:03:16;;;;;;;12.20;3.40;;;;;;;12.13;72.04;99508.64;108921;1278;138100;-63
2022/05/13 03:05:44;;;;;;;11.50;3.50;;;;;;;12.14;71.69;99512.52;109178;1277;23694;-64
2022/05/13 03:08:13;;;;;;;8.30;3.40;;;;;;;12.14;71.38;99511.00;109140;1277;22401;-64
2022/05/13 03:10:41;;;;;;;9.10;3.60;;;;;;;12.19;71.30;99514.95;109049;1277;140055;-63
2022/05/13 03:13:09;;;;;;;11.00;3.50;;;;;;;12.20;71.37;99511.84;109179;1277;22358;-64
2022/05/13 03:15:37;;;;;;;6.90;3.30;;;;;;;12.24;71.09;99517.87;108935;1278;137589;-63
2022/05/13 03:18:05;;;;;;;8.10;4.00;;;;;;;12.27;71.23;99528.41;109189;1276;22439;-64
2022/05/13 03:20:33;;;;;;;9.00;3.90;;;;;;;12.27;71.64;99526.38;108947;1277;138106;-64
2022/05/13 03:23:02;;;;;;;9.90;4.50;;;;;;;12.28;71.82;99527.42;108986;1279;22538;-63
2022/05/13 03:25:30;;;;;;;12.00;4.90;;;;;;;12.28;71.93;99529.50;109207;1277;22528;-63
2022/05/13 03:27:59;;;;;;;12.90;5.10;;;;;;;12.27;72.01;99529.16;109041;1276;139789;-63
2022/05/13 03:30:27;;;;;;;11.80;5.80;;;;;;;12.29;72.26;99533.05;109197;1277;22390;-64
2022/05/13 03:32:55;;;;;;;11.70;5.30;;;;;;;12.34;72.31;99534.23;109107;1277;138381;-63
2022/05/13 03:35:23;;;;;;;12.10;4.70;;;;;;;12.40;72.51;99530.85;109126;1277;22461;-64
2022/05/13 03:37:51;;;;;;;16.80;6.10;;;;;;;12.47;72.31;99531.35;109050;1277;22451;-64
2022/05/13 03:40:19;;;;;;;12.70;6.50;;;;;;;12.53;72.26;99535.70;109053;1277;138887;-63
2022/05/13 03:42:48;;;;;;;17.50;7.60;;;;;;;12.60;72.20;99540.95;109221;1277;22444;-63
2022/05/13 03:45:16;;;;;;;17.00;7.90;;;;;;;12.66;72.06;99539.27;109022;1276;139405;-64
2022/05/13 03:47:44;;;;;;;18.20;8.10;;;;;;;12.71;71.72;99534.52;109076;1277;22448;-64
2022/05/13 03:50:12;;;;;;;18.10;8.40;;;;;;;12.78;71.67;99536.11;109167;1277;23355;-64
2022/05/13 03:52:42;;;;;;;17.30;8.80;;;;;;;12.85;71.92;99538.25;109102;1276;138237;-63
2022/05/13 03:55:10;;;;;;;16.20;8.80;;;;;;;12.91;72.02;99534.59;109009;1277;22610;-64
2022/05/13 03:57:38;;;;;;;23.60;9.30;;;;;;;12.97;72.42;99537.00;104693;1278;138200;-63
2022/05/13 04:00:07;;;;;;;15.10;8.00;;;;;;;13.05;72.53;99540.17;104814;1277;24109;-65
2022/05/13 04:02:37;;;;;;;16.70;8.60;;;;;;;13.15;72.83;99543.42;109025;1277;138420;-63
2022/05/13 04:10:48;;;;;;;28.00;9.90;;;;;;;13.49;71.85;99554.29;109071;1277;137849;-64
2022/05/13 04:16:06;;;;;;;22.90;10.30;;;;;;;13.63;71.44;99561.54;109068;1277;138662;-64
2022/05/13 04:18:39;;;;;;;20.00;10.00;;;;;;;13.65;71.51;99562.03;109212;1277;22495;-64
2022/05/13 04:21:10;;;;;;;29.30;10.90;;;;;;;13.68;71.38;99566.52;108925;1279;140097;-64
2022/05/13 04:23:41;;;;;;;25.70;10.50;;;;;;;13.72;71.25;99566.54;109188;1277;22460;-64
2022/05/13 04:26:13;;;;;;;23.40;11.10;;;;;;;13.75;70.94;99569.05;107354;1277;25464;-63
2022/05/13 04:28:45;;;;;;;21.30;10.60;;;;;;;13.77;70.83;99561.29;109047;1276;140296;-64
2022/05/13 04:31:14;;;;;;;30.10;11.00;;;;;;;13.82;70.44;99570.42;109225;1277;23726;-63
2022/05/13 04:33:42;;;;;;;27.00;11.60;;;;;;;13.86;70.21;99566.57;109100;1277;138624;-64
2022/05/13 04:36:11;;;;;;;25.60;11.80;;;;;;;13.89;70.07;99570.29;109165;1277;22413;-64
2022/05/13 04:38:39;;;;;;;25.60;12.70;;;;;;;13.94;69.72;99567.20;109090;1277;138881;-63
2022/05/13 04:43:53;;;;;;;24.60;12.90;;;;;;;14.05;69.52;99564.64;109002;1278;22435;-64
2022/05/13 04:46:22;;;;;;;30.50;13.70;;;;;;;14.11;69.39;99572.09;108894;1278;140007;-64
2022/05/13 04:48:51;;;;;;;22.50;11.60;;;;;;;14.17;69.02;99566.85;109189;1277;22482;-64
2022/05/13 04:51:19;;;;;;;26.00;11.10;;;;;;;14.29;69.17;99559.50;109108;1277;137704;-64
2022/05/13 04:53:49;;;;;;;26.50;10.10;;;;;;;14.45;68.68;99566.14;109005;1278;23151;-64
2022/05/13 04:56:17;;;;;;;24.10;10.70;;;;;;;14.63;67.85;99563.80;107165;1277;22555;-64
2022/05/13 04:58:46;;;;;;;17.60;9.40;;;;;;;14.80;67.23;99565.00;109076;1277;137316;-64
2022/05/13 05:01:14;;;;;;;22.80;8.70;;;;;;;14.98;66.87;99566.02;109219;1277;22444;-64
2022/05/13 05:03:43;;;;;;;23.50;8.40;;;;;;;15.16;66.29;99569.17;109057;1277;139155;-65
2022/05/13 05:06:11;;;;;;;11.80;6.50;;;;;;;15.35;65.71;99562.05;109187;1277;23312;-64
2022/05/13 05:08:39;;;;;;;18.50;8.00;;;;;;;15.60;65.29;99564.08;108928;1278;137659;-64
2022/05/13 05:11:08;;;;;;;22.50;6.90;;;;;;;15.89;64.61;99564.33;109203;1277;22410;-64
2022/05/13 05:13:39;;;;;;;15.50;5.70;;;;;;;16.23;63.86;99569.05;108993;1277;23567;-64
2022/05/13 05:16:07;;;;;;;12.30;4.10;;;;;;;16.62;63.06;99572.11;109108;1277;138537;-64
2022/05/13 05:18:36;;;;;;;12.10;4.00;;;;;;;17.04;61.69;99573.05;109206;1277;22434;-64
2022/05/13 05:21:05;;;;;;;9.20;4.00;;;;;;;17.45;60.57;99570.45;108875;1277;138353;-65
2022/05/13 05:23:34;;;;;;;8.50;3.80;;;;;;;17.85;59.06;99571.02;109164;1277;22421;-64
2022/05/13 05:26:02;;;;;;;8.40;3.80;;;;;;;18.23;57.34;99570.04;109183;1277;22481;-65
2022/05/13 05:28:32;;;;;;;8.30;3.20;;;;;;;18.58;56.35;99567.15;108867;1278;137792;-65
2022/05/13 05:31:02;;;;;;;6.40;3.50;;;;;;;18.92;54.79;99558.21;109206;1276;22444;-65
2022/05/13 05:33:31;;;;;;;8.50;2.70;;;;;;;19.22;52.77;99555.46;109085;1276;138221;-65
2022/05/13 05:35:59;;;;;;;6.50;3.10;;;;;;;19.43;52.05;99552.77;109119;1277;22466;-65
2022/05/13 05:38:27;;;;;;;4.40;2.90;;;;;;;19.66;51.17;99548.33;109081;1277;138858;-64
2022/05/13 05:40:57;;;;;;;5.50;2.30;;;;;;;19.91;49.93;99551.10;109198;1277;22444;-64
2022/05/13 05:43:27;;;;;;;6.80;2.20;;;;;;;20.07;46.80;99551.98;109189;1277;22439;-65
2022/05/13 05:45:56;;;;;;;4.50;2.20;;;;;;;19.98;46.72;99545.73;109098;1277;137977;-65
2022/05/13 05:48:24;;;;;;;5.70;2.50;;;;;;;19.87;46.18;99547.21;108990;1277;22470;-64
2022/05/13 05:50:54;;;;;;;3.50;2.30;;;;;;;19.62;46.02;99541.90;109047;1277;138555;-65
2022/05/13 05:58:57;;;;;;;4.80;2.40;;;;;;;19.14;47.92;99555.66;109117;1276;137375;-64
2022/05/13 06:01:25;;;;;;;3.30;1.60;;;;;;;19.01;47.47;99568.06;109187;1277;22371;-64
2022/05/13 06:03:53;;;;;;;9.20;1.70;;;;;;;18.82;46.19;99567.52;109107;1277;137758;-64
2022/05/13 06:06:22;;;;;;;3.50;2.00;;;;;;;18.62;46.14;99575.73;108976;1279;22446;-65
2022/05/13 06:08:54;;;;;;;5.00;1.90;;;;;;;18.45;46.84;99588.55;109114;1277;139061;-64
2022/05/13 06:11:23;;;;;;;5.50;2.20;;;;;;;18.33;47.78;99596.31;109192;1277;22434;-64
2022/05/13 06:13:53;;;;;;;1.40;1.30;;;;;;;18.19;48.11;99597.31;109032;1277;23398;-64
2022/05/13 06:16:24;;;;;;;7.10;2.10;;;;;;;18.00;48.44;99596.52;109305;1274;139177;-64
2022/05/13 06:18:52;;;;;;;5.40;1.30;;;;;;;17.81;48.53;99592.20;109438;1272;23332;-64
2022/05/13 06:21:20;;;;;;;4.50;1.60;;;;;;;17.70;48.93;99595.21;109306;1273;137574;-64
2022/05/13 06:23:48;;;;;;;3.40;1.50;;;;;;;17.63;48.97;99599.73;109421;1274;22461;-65
2022/05/13 06:26:17;;;;;;;5.90;1.60;;;;;;;17.54;48.94;99600.48;109404;1274;23129;-64
2022/05/13 06:28:45;;;;;;;3.90;1.80;;;;;;;17.46;49.22;99600.73;109313;1274;138057;-64
2022/05/13 06:31:13;;;;;;;4.30;1.40;;;;;;;17.33;48.72;99603.04;109396;1274;22447;-64
2022/05/13 06:33:43;;;;;;;4.30;1.60;;;;;;;17.12;49.13;99598.86;109328;1274;138529;-64
2022/05/13 06:36:11;;;;;;;6.30;1.50;;;;;;;17.05;49.49;99607.89;109459;1273;23450;-64
2022/05/13 06:38:39;;;;;;;7.50;1.90;;;;;;;17.00;50.06;99609.18;109346;1273;139682;-64
2022/05/13 06:41:07;;;;;;;4.00;1.30;;;;;;;17.02;50.36;99608.77;109436;1272;22530;-64
2022/05/13 06:43:36;;;;;;;2.30;1.30;;;;;;;17.07;50.50;99604.61;109459;1274;22438;-64
2022/05/13 06:46:04;;;;;;;3.80;1.20;;;;;;;17.09;49.98;99606.22;109334;1273;137441;-64
2022/05/13 06:48:37;;;;;;;6.00;1.40;;;;;;;17.07;49.44;99602.67;109444;1273;22475;-64
2022/05/13 06:51:05;;;;;;;2.80;1.40;;;;;;;16.99;49.21;99598.13;109314;1274;137692;-64
2022/05/13 06:53:33;;;;;;;3.40;1.40;;;;;;;16.94;49.72;99603.59;109507;1274;22322;-64
2022/05/13 06:56:01;;;;;;;1.90;1.20;;;;;;;16.94;49.57;99607.23;109400;1274;22440;-64
2022/05/13 06:58:29;;;;;;;6.30;2.00;;;;;;;16.92;49.65;99599.77;109331;1273;138498;-64
2022/05/13 07:00:57;;;;;;;4.50;1.40;;;;;;;16.90;50.39;99598.79;109429;1273;22364;-64
2022/05/13 07:03:26;;;;;;;5.60;1.40;;;;;;;16.94;50.89;99603.48;109248;1274;137656;-64
2022/05/13 07:05:54;;;;;;;8.70;2.70;;;;;;;17.01;51.23;99603.59;108116;1274;23981;-64
2022/05/13 07:08:21;;;;;;;5.30;1.30;;;;;;;17.10;50.83;99604.62;104926;1274;24111;-63
2022/05/13 07:10:50;;;;;;;5.00;1.20;;;;;;;17.15;49.78;99598.77;109243;1274;138624;-64
2022/05/13 07:13:18;;;;;;;2.40;1.20;;;;;;;17.15;49.59;99601.63;109383;1274;22455;-64
2022/05/13 07:15:46;;;;;;;4.80;1.30;;;;;;;17.12;49.35;99604.52;109326;1273;137993;-64
2022/05/13 07:18:14;;;;;;;4.90;1.30;;;;;;;17.10;49.07;99606.16;109411;1273;22570;-64
2022/05/13 07:20:42;;;;;;;3.00;1.80;;;;;;;17.09;48.71;99604.91;109328;1273;137678;-64
2022/05/13 07:23:11;;;;;;;3.90;1.30;;;;;;;17.09;49.37;99606.40;109420;1274;22437;-64
2022/05/13 07:25:39;;;;;;;3.50;1.10;;;;;;;17.13;49.87;99599.67;109441;1273;23276;-63
2022/05/13 07:28:07;;;;;;;4.10;1.00;;;;;;;17.20;49.95;99605.16;109320;1274;138846;-64
2022/05/13 07:30:36;;;;;;;3.20;1.40;;;;;;;17.28;49.34;99602.91;109428;1274;22419;-64
2022/05/13 07:33:04;;;;;;;3.90;1.10;;;;;;;17.37;49.37;99604.13;109326;1274;137518;-64
2022/05/13 07:35:32;;;;;;;4.90;1.70;;;;;;;17.46;48.61;99605.92;109420;1273;23298;-64
2022/05/13 07:38:00;;;;;;;5.30;1.40;;;;;;;17.50;47.80;99606.71;109428;1274;22436;-64
2022/05/13 07:43:16;;;;;;;2.40;1.00;;;;;;;17.54;47.63;99614.38;109434;1273;22417;-64
2022/05/13 07:45:45;;;;;;;10.00;1.90;;;;;;;17.49;47.62;99608.66;109336;1273;138537;-64
2022/05/13 07:48:14;;;;;;;3.50;1.30;;;;;;;17.41;47.58;99609.25;109466;1272;23903;-64
2022/05/13 07:50:42;;;;;;;4.70;1.50;;;;;;;17.33;47.50;99614.60;109357;1273;139132;-65
2022/05/13 07:53:10;;;;;;;5.10;1.30;;;;;;;17.27;48.03;99612.17;109421;1273;22508;-65
2022/05/13 07:55:38;;;;;;;2.40;1.10;;;;;;;17.25;48.75;99611.32;109426;1273;22425;-65
2022/05/13 07:58:08;;;;;;;5.10;1.20;;;;;;;17.25;48.70;99614.68;109307;1273;137831;-65
2022/05/13 08:00:38;;;;;;;2.70;0.90;;;;;;;17.29;48.21;99615.39;109446;1273;22421;-65
2022/05/13 08:03:11;;;;;;;5.10;1.10;;;;;;;17.33;48.58;99613.33;109277;1273;137958;-64
2022/05/13 08:05:43;;;;;;;6.40;0.90;;;;;;;17.36;48.07;99612.63;108435;1274;22715;-64
2022/05/13 08:08:19;;;;;;;5.40;1.00;;;;;;;17.33;48.42;99612.61;105063;1273;22773;-64
2022/05/13 08:10:54;;;;;;;3.90;1.10;;;;;;;17.32;48.60;99613.83;104954;1273;138881;-64
2022/05/13 08:13:23;;;;;;;8.90;1.20;;;;;;;17.33;48.49;99615.47;109452;1273;23471;-65
2022/05/13 08:15:52;;;;;;;2.30;0.90;;;;;;;17.34;48.33;99612.39;109233;1274;137218;-65
2022/05/13 08:18:20;;;;;;;2.50;0.90;;;;;;;17.37;48.82;99612.27;109438;1273;22397;-65
2022/05/13 08:20:49;;;;;;;4.70;1.10;;;;;;;17.43;48.72;99610.16;109261;1274;137612;-64
2022/05/13 08:23:18;;;;;;;3.90;1.00;;;;;;;17.51;48.29;99607.52;109448;1272;22462;-65
2022/05/13 08:25:46;;;;;;;3.60;1.10;;;;;;;17.56;47.88;99601.99;109393;1273;22455;-65
2022/05/13 08:28:14;;;;;;;4.70;1.30;;;;;;;17.59;47.65;99607.39;109316;1272;137821;-65
2022/05/13 08:30:42;;;;;;;2.20;1.00;;;;;;;17.60;46.98;99611.77;109378;1273;22467;-65
2022/05/13 08:33:11;;;;;;;1.70;0.90;;;;;;;17.53;46.98;99608.42;109286;1273;137482;-65
2022/05/13 08:35:41;;;;;;;3.80;1.00;;;;;;;17.47;47.43;99608.14;109412;1273;22544;-64
2022/05/13 08:38:09;;;;;;;4.80;1.60;;;;;;;17.46;46.79;99604.75;109467;1273;23140;-65
2022/05/13 08:43:34;;;;;;;3.30;1.10;;;;;;;17.36;47.12;99611.30;101524;1311;546265;-65
2022/05/13 08:46:28;;;;;;;6.80;1.10;;;;;;;17.35;47.71;99609.83;107932;1286;138242;-66
2022/05/13 08:49:16;;;;;;;2.70;1.00;;;;;;;17.37;47.83;99610.68;107833;1289;22432;-66
2022/05/13 08:51:53;;;;;;;4.70;1.30;;;;;;;17.38;47.50;99603.34;107813;1289;138290;-65
2022/05/13 08:54:24;;;;;;;3.60;1.20;;;;;;;17.38;47.29;99604.73;107816;1289;22472;-66
2022/05/13 08:56:54;;;;;;;4.40;1.20;;;;;;;17.37;47.77;99604.13;107596;1286;211717;-66
2022/05/13 08:59:25;;;;;;;1.50;1.20;;;;;;;17.40;48.00;99597.14;108136;1286;22487;-66
2022/05/13 09:01:54;;;;;;;2.70;1.30;;;;;;;17.43;47.67;99596.06;108271;1286;22402;-66
2022/05/13 09:04:35;;;;;;;7.20;1.50;;;;;;;17.46;48.34;99595.98;107986;1286;137207;-66
2022/05/13 09:07:12;;;;;;;6.90;1.70;;;;;;;17.54;48.88;99594.31;108040;1289;23157;-66
2022/05/13 09:09:43;;;;;;;5.30;1.70;;;;;;;17.61;48.30;99595.06;108011;1288;137857;-66
2022/05/13 09:12:35;;;;;;;3.30;1.50;;;;;;;17.68;47.67;99592.00;108179;1287;22451;-66
2022/05/13 09:15:33;;;;;;;7.10;1.50;;;;;;;17.72;47.82;99581.54;107974;1287;137472;-65
2022/05/13 09:18:00;;;;;;;4.40;1.80;;;;;;;17.77;47.18;99578.54;108088;1287;23109;-65
2022/05/13 09:20:50;;;;;;;5.20;2.10;;;;;;;17.82;46.83;99577.02;107823;1289;139133;-65
2022/05/13 09:23:19;;;;;;;5.70;1.80;;;;;;;17.83;46.19;99571.60;108184;1287;22440;-65
2022/05/13 09:26:13;;;;;;;5.40;2.20;;;;;;;17.83;46.46;99575.98;108145;1287;22689;-66
2022/05/13 09:29:00;;;;;;;3.20;1.40;;;;;;;17.86;47.10;99585.16;108007;1287;137565;-65
2022/05/13 09:31:28;;;;;;;4.10;1.60;;;;;;;17.92;46.05;99585.92;108199;1287;23305;-66
2022/05/13 09:34:39;;;;;;;3.90;1.30;;;;;;;17.96;46.54;99580.94;108049;1287;138707;-66
2022/05/13 09:37:21;;;;;;;4.90;1.90;;;;;;;18.01;46.49;99570.71;107496;1292;23089;-64
2022/05/13 09:39:51;;;;;;;4.50;1.50;;;;;;;18.04;46.60;99579.48;107405;1292;137989;-65
2022/05/13 09:42:39;;;;;;;5.00;1.90;;;;;;;18.05;46.47;99579.38;107486;1291;22488;-65
2022/05/13 09:45:14;;;;;;;7.70;2.00;;;;;;;18.05;46.92;99568.08;107386;1292;137264;-65
2022/05/13 09:47:44;;;;;;;2.80;1.30;;;;;;;18.07;47.30;99568.21;107540;1292;22502;-65
2022/05/13 09:50:24;;;;;;;4.50;1.10;;;;;;;18.10;46.70;99559.05;107486;1292;23539;-65
2022/05/13 09:52:53;;;;;;;3.60;1.40;;;;;;;18.13;46.48;99562.91;108210;1285;136818;-65
2022/05/13 09:55:26;;;;;;;3.10;1.30;;;;;;;18.13;46.61;99566.33;108115;1285;22545;-65
2022/05/13 09:57:54;;;;;;;4.60;1.00;;;;;;;18.17;46.04;99562.55;108149;1285;138846;-65
2022/05/13 10:00:25;;;;;;;1.60;0.90;;;;;;;18.24;45.97;99562.95;108086;1287;22601;-65
2022/05/13 10:03:24;;;;;;;7.00;1.50;;;;;;;18.34;46.42;99558.37;107987;1286;139562;-65
2022/05/13 10:06:17;;;;;;;10.20;1.30;;;;;;;18.48;46.17;99553.68;108100;1286;22496;-66
2022/05/13 10:08:53;;;;;;;3.90;1.00;;;;;;;18.57;45.96;99552.89;108024;1287;137944;-65
2022/05/13 10:14:50;;;;;;;6.80;1.20;;;;;;;18.66;45.64;99555.13;108358;1281;23159;-65
2022/05/13 10:17:22;;;;;;;4.80;1.10;;;;;;;18.69;45.91;99547.83;108313;1285;23497;-65
2022/05/13 10:19:59;;;;;;;6.10;1.20;;;;;;;18.76;45.77;99543.65;108204;1285;22503;-65
2022/05/13 10:22:36;;;;;;;5.20;1.20;;;;;;;18.83;45.51;99540.66;108289;1285;137064;-66
2022/05/13 10:25:06;;;;;;;;;;;;;;;18.89;44.87;99535.42;108405;1285;22435;-66
2022/05/13 10:27:37;;;;;;;5.90;1.20;;;;;;;18.94;44.59;99535.98;108111;1286;124763;-65
2022/05/13 10:30:23;;;;;;;2.70;1.10;;;;;;;18.96;44.14;99536.03;108212;1286;22550;-63
2022/05/13 10:32:54;;;;;;;;;;;;;;;18.99;43.87;99529.72;108402;1284;23335;-63
2022/05/13 10:35:24;;;;;;;9.30;1.30;;;;;;;18.99;43.51;99530.17;108265;1285;123530;-66
2022/05/13 10:38:11;;;;;;;5.60;1.10;;;;;;;18.97;43.47;99529.92;108112;1284;22451;-66
2022/05/13 10:40:42;;;;;;;2.70;1.20;;;;;;;18.97;42.87;99529.55;108099;1286;137683;-66
2022/05/13 10:43:35;;;;;;;5.90;1.20;;;;;;;18.98;42.91;99527.92;108082;1286;22566;-66
2022/05/13 10:46:11;;;;;;;1.50;0.70;;;;;;;18.99;42.29;99520.23;108131;1286;137349;-66
2022/05/13 10:48:39;;;;;;;5.50;1.30;;;;;;;19.02;42.60;99512.83;108441;1281;22438;-66
2022/05/13 10:51:19;;;;;;;6.40;1.20;;;;;;;19.07;42.24;99520.23;108528;1281;137369;-66
2022/05/13 10:54:25;;;;;;;3.10;1.50;;;;;;;19.16;41.79;99526.73;108808;1281;22475;-66
2022/05/13 10:57:02;;;;;;;1.90;0.90;;;;;;;19.21;41.51;99520.92;108232;1286;22460;-66
2022/05/13 11:00:05;;;;;;;4.40;1.40;;;;;;;19.21;41.66;99511.86;108067;1285;136768;-66
2022/05/13 11:02:38;;;;;;;2.30;1.30;;;;;;;19.20;42.19;99507.27;107262;1293;23283;-66
2022/05/13 11:05:07;;;;;;;3.60;1.50;;;;;;;19.20;42.68;99509.68;107183;1293;137105;-66
2022/05/13 11:08:08;;;;;;;4.00;1.30;;;;;;;19.22;42.21;99509.92;107297;1293;22753;-66
2022/05/13 11:11:15;;;;;;;5.90;1.40;;;;;;;19.24;42.35;99510.48;107370;1290;138727;-66
2022/05/13 11:13:50;;;;;;;2.90;1.30;;;;;;;19.25;42.18;99504.88;107624;1291;22267;-66
2022/05/13 11:16:24;;;;;;;2.90;1.80;;;;;;;19.24;41.81;99497.98;107410;1290;136995;-66
2022/05/13 11:19:07;;;;;;;6.90;1.30;;;;;;;19.23;41.77;99493.03;107328;1293;22516;-66
2022/05/13 11:21:44;;;;;;;4.80;1.30;;;;;;;19.24;41.54;99490.48;107212;1292;138072;-66
2022/05/13 11:27:29;;;;;;;4.10;1.40;;;;;;;19.29;40.91;99486.99;107332;1290;22568;-66
2022/05/13 11:30:21;;;;;;;5.60;1.30;;;;;;;19.31;41.16;99486.78;107730;1289;22504;-65
2022/05/13 11:33:12;;;;;;;4.00;1.50;;;;;;;19.31;41.22;99476.88;107606;1290;23276;-65
2022/05/13 11:35:41;;;;;;;5.90;1.30;;;;;;;19.31;41.39;99474.83;107398;1289;137163;-66
2022/05/13 11:38:19;;;;;;;3.80;1.30;;;;;;;19.32;41.51;99475.52;107734;1288;22481;-65
2022/05/13 11:40:47;;;;;;;;;;;;;;;19.33;41.02;99476.73;108569;1281;137106;-65
2022/05/13 11:43:34;;;;;;;3.70;0.90;;;;;;;19.30;40.47;99470.77;108730;1281;22421;-65
2022/05/13 11:46:29;;;;;;;2.60;1.50;;;;;;;19.30;40.33;99472.15;107048;1280;138872;-64
2022/05/13 11:49:25;;;;;;;11.70;2.00;;;;;;;19.29;40.69;99470.85;108757;1280;23304;-65
2022/05/13 11:51:54;;;;;;;4.90;1.30;;;;;;;19.29;40.93;99464.94;108817;1279;137695;-65
2022/05/13 11:54:27;;;;;;;0.90;0.80;;;;;;;19.30;40.85;99464.98;108976;1280;22450;-65
2022/05/13 11:57:16;;;;;;;3.30;1.00;;;;;;;19.30;40.57;99461.60;108937;1279;22406;-65
2022/05/13 11:59:50;;;;;;;9.30;1.90;;;;;;;19.31;41.02;99462.45;108862;1280;137227;-65
2022/05/13 12:02:36;;;;;;;3.10;1.00;;;;;;;19.35;40.64;99465.14;108956;1280;23525;-65
2022/05/13 12:05:26;;;;;;;3.30;1.50;;;;;;;19.37;40.35;99459.56;108703;1280;137087;-65
2022/05/13 12:08:08;;;;;;;17.10;1.90;;;;;;;19.41;40.64;99458.03;108922;1280;22653;-65
2022/05/13 12:10:42;;;;;;;5.20;1.50;;;;;;;19.45;40.19;99459.92;108465;1282;137256;-66
2022/05/13 12:13:34;;;;;;;5.90;1.50;;;;;;;19.49;39.96;99464.46;108629;1281;23675;-65
2022/05/13 12:16:20;;;;;;;2.50;1.10;;;;;;;19.53;40.53;99455.34;108655;1280;139226;-65
2022/05/13 12:18:52;;;;;;;2.60;1.30;;;;;;;19.60;40.95;99451.13;108971;1280;22391;-65